Wetterdaten: Woche 23.05.16 - 29.05.16 (KW21)
Datum Zeit Temp. A. Feuchte A. Luftdruck Regen Wind Richtung Taupunkt Windchill Windben
23.05.2016 00:00 17,2 C 69 % 1009,5 hPa 0,0 l/m 0,0 km/h N 11,4 C 17,2 C 2,8 km/h
23.05.2016 01:00 16,1 C 73 % 1009,0 hPa 0,0 l/m 0,1 km/h N 11,2 C 16,1 C 2,4 km/h
23.05.2016 02:00 15,2 C 74 % 1008,5 hPa 0,0 l/m 0,0 km/h N 10,6 C 15,2 C 0,4 km/h
23.05.2016 03:00 14,5 C 75 % 1008,1 hPa 0,0 l/m 0,0 km/h N 10,1 C 14,5 C 0,4 km/h
23.05.2016 04:00 13,1 C 77 % 1007,8 hPa 0,0 l/m 0,0 km/h N 9,3 C 13,1 C 0,0 km/h
23.05.2016 05:00 11,9 C 80 % 1007,7 hPa 0,0 l/m 0,0 km/h N 8,5 C 11,9 C 0,0 km/h
23.05.2016 06:00 11,9 C 82 % 1007,7 hPa 0,0 l/m 0,0 km/h N 8,9 C 11,9 C 0,4 km/h
23.05.2016 07:00 14,1 C 82 % 1008,0 hPa 0,0 l/m 0,1 km/h N 11,0 C 14,1 C 2,4 km/h
23.05.2016 08:00 18,1 C 75 % 1007,9 hPa 0,0 l/m 0,2 km/h N 13,4 C 18,1 C 4,4 km/h
23.05.2016 09:00 21,5 C 64 % 1007,8 hPa 0,0 l/m 0,6 km/h N 14,2 C 21,5 C 5,2 km/h
23.05.2016 10:00 23,8 C 59 % 1007,2 hPa 0,0 l/m 0,9 km/h N 15,3 C 23,8 C 7,2 km/h
23.05.2016 11:00 24,1 C 56 % 1006,7 hPa 0,0 l/m 1,1 km/h N 14,9 C 24,1 C 8,4 km/h
23.05.2016 12:00 25,0 C 55 % 1006,2 hPa 0,0 l/m 1,9 km/h N 15,2 C 25,0 C 10,4 km/h
23.05.2016 13:00 27,0 C 48 % 1005,4 hPa 0,0 l/m 3,5 km/h N 15,1 C 27,0 C 14,1 km/h
23.05.2016 14:00 27,7 C 47 % 1004,9 hPa 0,0 l/m 3,8 km/h N 15,2 C 27,7 C 13,7 km/h
23.05.2016 15:00 26,9 C 47 % 1004,2 hPa 0,0 l/m 3,8 km/h N 14,5 C 26,9 C 15,7 km/h
23.05.2016 16:00 26,7 C 45 % 1003,6 hPa 0,0 l/m 5,3 km/h N 13,6 C 26,7 C 20,1 km/h
23.05.2016 17:00 26,4 C 46 % 1003,2 hPa 0,0 l/m 5,0 km/h N 13,8 C 26,4 C 18,5 km/h
23.05.2016 18:00 25,9 C 48 % 1003,0 hPa 0,0 l/m 4,0 km/h N 14,1 C 25,9 C 16,1 km/h
23.05.2016 19:00 23,0 C 55 % 1004,1 hPa 0,0 l/m 6,1 km/h N 13,2 C 22,4 C 18,1 km/h
23.05.2016 20:00 17,8 C 66 % 1005,3 hPa 0,0 l/m 7,3 km/h N 11,2 C 17,3 C 24,9 km/h
23.05.2016 21:00 15,3 C 69 % 1006,6 hPa 0,0 l/m 8,9 km/h N 9,7 C 14,0 C 22,1 km/h
23.05.2016 22:00 13,5 C 72 % 1007,2 hPa 0,0 l/m 8,1 km/h N 8,5 C 12,5 C 31,4 km/h
23.05.2016 23:00 12,6 C 74 % 1008,3 hPa 0,0 l/m 2,9 km/h N 8,1 C 12,6 C 15,7 km/h
24.05.2016 00:00 11,8 C 78 % 1008,3 hPa 0,8 l/m 2,7 km/h N 8,0 C 11,8 C 12,5 km/h
24.05.2016 01:00 10,7 C 81 % 1007,5 hPa 1,0 l/m 3,5 km/h N 7,4 C 10,7 C 19,7 km/h
24.05.2016 02:00 9,8 C 82 % 1007,5 hPa 5,7 l/m 3,8 km/h N 6,9 C 9,8 C 18,9 km/h
24.05.2016 03:00 9,4 C 82 % 1006,5 hPa 2,6 l/m 7,6 km/h N 6,5 C 8,6 C 27,4 km/h
24.05.2016 04:00 9,7 C 82 % 1006,6 hPa 0,8 l/m 7,2 km/h N 6,7 C 9,0 C 25,7 km/h
24.05.2016 05:00 9,7 C 82 % 1006,7 hPa 2,3 l/m 5,1 km/h N 6,8 C 9,1 C 15,7 km/h
24.05.2016 06:00 9,6 C 82 % 1006,9 hPa 4,9 l/m 6,5 km/h N 6,7 C 8,5 C 22,1 km/h
24.05.2016 07:00 9,8 C 82 % 1006,4 hPa 0,8 l/m 4,4 km/h N 6,8 C 9,3 C 17,3 km/h
24.05.2016 08:00 10,0 C 82 % 1007,0 hPa 0,3 l/m 5,0 km/h N 7,0 C 9,9 C 21,7 km/h
24.05.2016 09:00 10,4 C 82 % 1007,4 hPa 0,8 l/m 7,5 km/h N 7,4 C 9,4 C 21,7 km/h
24.05.2016 10:00 10,5 C 82 % 1007,8 hPa 0,8 l/m 6,7 km/h N 7,5 C 10,1 C 22,9 km/h
24.05.2016 11:00 11,8 C 82 % 1007,8 hPa 0,0 l/m 7,6 km/h N 8,8 C 10,9 C 24,9 km/h
24.05.2016 12:00 13,4 C 80 % 1008,0 hPa 0,0 l/m 6,3 km/h N 10,0 C 13,0 C 26,1 km/h
24.05.2016 13:00 15,3 C 74 % 1007,9 hPa 0,0 l/m 9,6 km/h N 10,6 C 13,8 C 27,8 km/h
24.05.2016 14:00 14,7 C 74 % 1007,3 hPa 0,0 l/m 14,7 km/h N 10,0 C 11,1 C 35,4 km/h
24.05.2016 15:00 15,0 C 74 % 1007,1 hPa 0,0 l/m 13,4 km/h N 10,4 C 11,8 C 35,0 km/h
24.05.2016 16:00 15,6 C 72 % 1007,1 hPa 0,0 l/m 12,1 km/h N 10,6 C 13,0 C 35,4 km/h
24.05.2016 17:00 15,0 C 72 % 1007,0 hPa 0,0 l/m 14,5 km/h N 10,0 C 11,4 C 35,4 km/h
24.05.2016 18:00 15,0 C 72 % 1006,9 hPa 0,0 l/m 11,8 km/h N 9,9 C 12,4 C 32,6 km/h
24.05.2016 19:00 14,5 C 73 % 1007,6 hPa 0,0 l/m 14,2 km/h N 9,6 C 10,9 C 36,2 km/h
24.05.2016 20:00 13,8 C 75 % 1007,8 hPa 0,0 l/m 9,4 km/h N 9,4 C 12,1 C 31,0 km/h
24.05.2016 21:00 13,5 C 76 % 1008,1 hPa 0,0 l/m 10,4 km/h N 9,4 C 11,3 C 33,0 km/h
24.05.2016 22:00 13,4 C 78 % 1008,3 hPa 0,0 l/m 14,1 km/h N 9,5 C 9,6 C 34,6 km/h
24.05.2016 23:00 13,3 C 78 % 1008,2 hPa 0,0 l/m 13,2 km/h N 9,5 C 9,8 C 35,8 km/h
25.05.2016 00:00 13,3 C 78 % 1007,9 hPa 0,0 l/m 12,7 km/h N 9,5 C 10,0 C 36,2 km/h
25.05.2016 01:00 13,3 C 78 % 1008,1 hPa 0,0 l/m 10,9 km/h N 9,5 C 10,9 C 36,2 km/h
25.05.2016 02:00 13,4 C 77 % 1008,5 hPa 0,0 l/m 10,6 km/h N 9,5 C 11,1 C 32,2 km/h
25.05.2016 03:00 13,6 C 77 % 1008,7 hPa 0,0 l/m 15,1 km/h N 9,6 C 9,4 C 35,8 km/h
25.05.2016 04:00 13,7 C 76 % 1008,9 hPa 0,0 l/m 14,1 km/h N 9,5 C 10,0 C 34,9 km/h
25.05.2016 05:00 13,9 C 76 % 1009,5 hPa 0,0 l/m 12,0 km/h N 9,6 C 11,0 C 31,8 km/h
25.05.2016 06:00 13,8 C 77 % 1010,4 hPa 0,0 l/m 12,7 km/h N 9,8 C 10,7 C 31,4 km/h
25.05.2016 07:00 13,6 C 79 % 1010,9 hPa 0,0 l/m 11,6 km/h N 10,0 C 10,9 C 29,4 km/h
25.05.2016 08:00 13,9 C 79 % 1011,4 hPa 0,0 l/m 12,6 km/h N 10,3 C 10,8 C 27,8 km/h
25.05.2016 09:00 14,4 C 78 % 1011,9 hPa 0,0 l/m 13,7 km/h N 10,5 C 10,9 C 28,2 km/h
25.05.2016 10:00 15,3 C 76 % 1012,1 hPa 0,0 l/m 10,8 km/h N 11,0 C 13,1 C 24,9 km/h
25.05.2016 11:00 16,0 C 74 % 1012,3 hPa 0,0 l/m 11,2 km/h N 11,3 C 13,7 C 24,5 km/h
25.05.2016 12:00 16,8 C 73 % 1012,1 hPa 0,0 l/m 9,5 km/h N 11,9 C 15,4 C 22,1 km/h
25.05.2016 13:00 18,5 C 72 % 1011,6 hPa 0,0 l/m 10,5 km/h N 13,4 C 16,8 C 25,8 km/h
25.05.2016 14:00 19,3 C 70 % 1011,4 hPa 0,0 l/m 10,9 km/h N 13,6 C 17,6 C 24,5 km/h
25.05.2016 15:00 19,7 C 69 % 1011,2 hPa 0,0 l/m 12,1 km/h N 13,7 C 17,7 C 26,1 km/h
25.05.2016 16:00 20,2 C 69 % 1011,0 hPa 0,0 l/m 9,7 km/h N 14,2 C 18,9 C 23,3 km/h
25.05.2016 17:00 20,3 C 69 % 1010,8 hPa 0,0 l/m 8,6 km/h N 14,3 C 19,5 C 22,1 km/h
25.05.2016 18:00 20,5 C 68 % 1010,5 hPa 0,0 l/m 6,8 km/h N 14,4 C 20,1 C 21,3 km/h
25.05.2016 19:00 19,7 C 70 % 1010,8 hPa 0,0 l/m 7,0 km/h N 14,0 C 19,4 C 21,3 km/h
25.05.2016 20:00 18,4 C 73 % 1011,5 hPa 0,0 l/m 4,7 km/h N 13,5 C 18,4 C 17,3 km/h
25.05.2016 21:00 17,8 C 73 % 1012,1 hPa 0,0 l/m 8,1 km/h N 12,9 C 17,0 C 19,3 km/h
25.05.2016 22:00 17,0 C 74 % 1012,3 hPa 0,0 l/m 3,1 km/h N 12,4 C 17,0 C 12,1 km/h
25.05.2016 23:00 16,0 C 77 % 1012,8 hPa 0,0 l/m 0,8 km/h N 11,9 C 16,0 C 5,6 km/h
26.05.2016 00:00 15,5 C 79 % 1013,1 hPa 0,0 l/m 1,3 km/h N 11,8 C 15,5 C 8,9 km/h
26.05.2016 01:00 15,0 C 79 % 1012,9 hPa 0,0 l/m 0,3 km/h N 11,4 C 15,0 C 3,6 km/h
26.05.2016 02:00 13,6 C 80 % 1013,1 hPa 0,0 l/m 0,0 km/h N 10,2 C 13,6 C 0,0 km/h
26.05.2016 03:00 12,9 C 82 % 1013,5 hPa 0,0 l/m 0,1 km/h N 9,9 C 12,9 C 1,2 km/h
26.05.2016 04:00 13,8 C 82 % 1013,6 hPa 0,0 l/m 1,6 km/h N 10,8 C 13,8 C 7,6 km/h
26.05.2016 05:00 14,5 C 81 % 1014,0 hPa 0,0 l/m 2,6 km/h N 11,3 C 14,5 C 11,3 km/h
26.05.2016 06:00 14,9 C 81 % 1014,8 hPa 0,0 l/m 2,5 km/h N 11,5 C 14,9 C 11,3 km/h
26.05.2016 07:00 15,1 C 81 % 1015,4 hPa 0,0 l/m 5,1 km/h N 11,8 C 15,1 C 14,1 km/h
26.05.2016 08:00 16,0 C 80 % 1015,6 hPa 0,0 l/m 3,8 km/h N 12,6 C 16,0 C 11,3 km/h
26.05.2016 09:00 17,0 C 78 % 1015,6 hPa 0,0 l/m 5,8 km/h N 13,1 C 16,9 C 16,5 km/h
26.05.2016 10:00 18,3 C 75 % 1015,5 hPa 0,0 l/m 5,2 km/h N 13,9 C 18,4 C 16,5 km/h
26.05.2016 11:00 19,6 C 70 % 1015,4 hPa 0,0 l/m 6,7 km/h N 14,1 C 19,4 C 20,1 km/h
26.05.2016 12:00 20,6 C 68 % 1015,3 hPa 0,0 l/m 7,6 km/h N 14,5 C 20,1 C 20,5 km/h
26.05.2016 13:00 21,8 C 64 % 1015,0 hPa 0,0 l/m 6,1 km/h N 14,7 C 21,7 C 17,3 km/h
26.05.2016 14:00 22,8 C 61 % 1014,8 hPa 0,0 l/m 6,2 km/h N 14,7 C 22,7 C 17,3 km/h
26.05.2016 15:00 23,0 C 60 % 1014,6 hPa 0,0 l/m 5,9 km/h N 14,6 C 22,9 C 15,7 km/h
26.05.2016 16:00 22,9 C 59 % 1014,3 hPa 0,0 l/m 5,4 km/h N 14,5 C 22,9 C 16,9 km/h
26.05.2016 17:00 23,3 C 57 % 1014,1 hPa 0,0 l/m 4,5 km/h N 14,2 C 23,3 C 12,9 km/h
26.05.2016 18:00 23,6 C 54 % 1014,1 hPa 0,0 l/m 3,1 km/h N 13,7 C 23,6 C 11,3 km/h
26.05.2016 19:00 23,3 C 54 % 1014,1 hPa 0,0 l/m 0,7 km/h N 13,4 C 23,3 C 5,6 km/h
26.05.2016 20:00 22,1 C 58 % 1014,3 hPa 0,0 l/m 0,0 km/h N 13,3 C 22,1 C 0,4 km/h
26.05.2016 21:00 19,0 C 67 % 1015,0 hPa 0,0 l/m 0,0 km/h N 12,8 C 19,0 C 0,0 km/h
26.05.2016 22:00 16,5 C 75 % 1015,3 hPa 0,0 l/m 0,0 km/h N 12,0 C 16,5 C 0,4 km/h
26.05.2016 23:00 15,2 C 79 % 1015,4 hPa 0,0 l/m 0,0 km/h N 11,6 C 15,2 C 0,0 km/h
27.05.2016 00:00 14,4 C 81 % 1015,5 hPa 0,0 l/m 0,0 km/h N 11,1 C 14,4 C 0,0 km/h
27.05.2016 01:00 13,7 C 82 % 1015,4 hPa 0,0 l/m 0,1 km/h N 10,7 C 13,7 C 1,6 km/h
27.05.2016 02:00 13,0 C 82 % 1015,2 hPa 0,0 l/m 0,0 km/h N 10,0 C 13,0 C 0,0 km/h
27.05.2016 03:00 12,4 C 82 % 1015,2 hPa 0,0 l/m 0,0 km/h N 9,4 C 12,4 C 0,0 km/h
27.05.2016 04:00 11,9 C 82 % 1015,1 hPa 0,0 l/m 0,0 km/h N 9,0 C 11,9 C 0,0 km/h
27.05.2016 05:00 11,9 C 82 % 1015,3 hPa 0,0 l/m 0,0 km/h N 8,9 C 11,9 C 0,0 km/h
27.05.2016 06:00 12,2 C 82 % 1015,3 hPa 0,0 l/m 0,0 km/h N 9,2 C 12,2 C 0,0 km/h
27.05.2016 07:00 14,0 C 81 % 1015,5 hPa 0,0 l/m 0,0 km/h N 10,7 C 14,0 C 0,8 km/h
27.05.2016 08:00 16,6 C 81 % 1015,7 hPa 0,0 l/m 0,3 km/h N 13,3 C 16,6 C 3,2 km/h
27.05.2016 09:00 20,1 C 77 % 1015,3 hPa 0,0 l/m 0,4 km/h N 15,9 C 20,1 C 5,2 km/h
27.05.2016 10:00 22,5 C 67 % 1014,8 hPa 0,0 l/m 2,1 km/h N 15,9 C 22,5 C 12,1 km/h
27.05.2016 11:00 24,2 C 63 % 1014,6 hPa 0,0 l/m 1,6 km/h N 16,7 C 24,2 C 9,2 km/h
27.05.2016 12:00 25,2 C 63 % 1014,2 hPa 0,0 l/m 1,5 km/h N 17,6 C 25,2 C 8,0 km/h
27.05.2016 13:00 26,1 C 62 % 1013,8 hPa 0,0 l/m 1,0 km/h N 18,2 C 26,1 C 7,6 km/h
27.05.2016 14:00 27,2 C 59 % 1013,2 hPa 0,0 l/m 1,4 km/h N 18,3 C 27,2 C 9,6 km/h
27.05.2016 15:00 26,8 C 57 % 1012,8 hPa 0,0 l/m 1,4 km/h N 17,4 C 26,8 C 8,0 km/h
27.05.2016 16:00 26,6 C 56 % 1012,6 hPa 0,0 l/m 2,4 km/h N 17,1 C 26,6 C 13,3 km/h
27.05.2016 17:00 25,3 C 57 % 1013,2 hPa 0,0 l/m 3,5 km/h N 16,0 C 25,3 C 14,1 km/h
27.05.2016 18:00 23,4 C 66 % 1013,3 hPa 0,0 l/m 0,5 km/h N 16,7 C 23,4 C 3,6 km/h
27.05.2016 19:00 24,0 C 67 % 1013,0 hPa 0,0 l/m 0,3 km/h N 17,5 C 24,0 C 4,8 km/h
27.05.2016 20:00 22,5 C 71 % 1012,7 hPa 0,0 l/m 0,9 km/h N 16,9 C 22,5 C 7,3 km/h
27.05.2016 21:00 20,6 C 72 % 1012,7 hPa 0,0 l/m 0,8 km/h N 15,3 C 20,6 C 5,6 km/h
27.05.2016 22:00 19,0 C 74 % 1013,0 hPa 0,0 l/m 1,6 km/h N 14,2 C 19,0 C 7,2 km/h
27.05.2016 23:00 18,1 C 76 % 1013,1 hPa 0,0 l/m 0,2 km/h N 13,8 C 18,1 C 4,0 km/h
28.05.2016 00:00 17,8 C 77 % 1013,2 hPa 0,0 l/m 0,7 km/h N 13,7 C 17,8 C 4,8 km/h
28.05.2016 01:00 17,6 C 79 % 1012,8 hPa 0,0 l/m 0,3 km/h N 13,8 C 17,6 C 4,4 km/h
28.05.2016 02:00 17,0 C 80 % 1013,1 hPa 0,0 l/m 0,0 km/h N 13,5 C 17,0 C 0,8 km/h
28.05.2016 03:00 16,4 C 81 % 1012,7 hPa 0,0 l/m 0,2 km/h N 13,2 C 16,4 C 2,8 km/h
28.05.2016 04:00 15,4 C 82 % 1012,6 hPa 0,0 l/m 0,1 km/h N 12,3 C 15,4 C 0,8 km/h
28.05.2016 05:00 15,0 C 82 % 1013,1 hPa 0,0 l/m 0,1 km/h N 12,0 C 15,0 C 0,8 km/h
28.05.2016 06:00 14,6 C 82 % 1013,1 hPa 0,0 l/m 0,1 km/h N 11,5 C 14,6 C 0,8 km/h
28.05.2016 07:00 16,3 C 81 % 1013,0 hPa 0,0 l/m 0,1 km/h N 13,1 C 16,3 C 1,6 km/h
28.05.2016 08:00 19,7 C 79 % 1012,7 hPa 0,0 l/m 0,3 km/h N 16,0 C 19,7 C 4,4 km/h
28.05.2016 09:00 22,8 C 72 % 1012,7 hPa 0,0 l/m 0,7 km/h N 17,4 C 22,8 C 6,0 km/h
28.05.2016 10:00 24,2 C 68 % 1012,5 hPa 0,0 l/m 0,6 km/h N 17,8 C 24,2 C 5,2 km/h
28.05.2016 11:00 25,9 C 63 % 1012,1 hPa 0,0 l/m 1,3 km/h N 18,4 C 25,9 C 8,0 km/h
28.05.2016 12:00 26,9 C 61 % 1011,6 hPa 0,0 l/m 1,9 km/h N 18,7 C 26,9 C 9,7 km/h
28.05.2016 13:00 27,5 C 56 % 1011,3 hPa 0,0 l/m 2,3 km/h N 17,9 C 27,5 C 10,9 km/h
28.05.2016 14:00 27,5 C 56 % 1010,6 hPa 0,0 l/m 2,9 km/h N 17,7 C 27,5 C 12,5 km/h
28.05.2016 15:00 27,7 C 52 % 1010,0 hPa 0,0 l/m 2,7 km/h N 17,0 C 27,7 C 12,5 km/h
28.05.2016 16:00 27,4 C 49 % 1009,7 hPa 0,0 l/m 4,2 km/h N 15,7 C 27,4 C 13,3 km/h
28.05.2016 17:00 26,8 C 52 % 1009,3 hPa 0,0 l/m 2,9 km/h N 15,9 C 26,8 C 12,1 km/h
28.05.2016 18:00 25,8 C 54 % 1008,6 hPa 0,0 l/m 2,4 km/h N 15,6 C 25,8 C 8,9 km/h
28.05.2016 19:00 24,7 C 58 % 1008,6 hPa 0,0 l/m 0,6 km/h N 15,9 C 24,7 C 4,4 km/h
28.05.2016 20:00 23,5 C 63 % 1008,6 hPa 0,0 l/m 0,2 km/h N 16,1 C 23,5 C 3,2 km/h
28.05.2016 21:00 22,4 C 68 % 1008,5 hPa 0,0 l/m 0,0 km/h N 16,2 C 22,4 C 1,2 km/h
28.05.2016 22:00 21,2 C 71 % 1008,5 hPa 0,0 l/m 0,0 km/h N 15,8 C 21,2 C 1,2 km/h
28.05.2016 23:00 21,0 C 73 % 1008,3 hPa 0,0 l/m 0,1 km/h N 15,8 C 21,0 C 2,4 km/h
29.05.2016 00:00 21,2 C 74 % 1008,2 hPa 0,0 l/m 1,6 km/h N 16,3 C 21,2 C 6,8 km/h
29.05.2016 01:00 20,3 C 78 % 1007,7 hPa 0,0 l/m 0,9 km/h N 16,3 C 20,3 C 6,0 km/h
29.05.2016 02:00 19,3 C 79 % 1007,5 hPa 0,0 l/m 0,0 km/h N 15,6 C 19,3 C 0,4 km/h
29.05.2016 03:00 18,3 C 81 % 1007,6 hPa 0,0 l/m 0,1 km/h N 15,0 C 18,3 C 2,0 km/h
29.05.2016 04:00 17,7 C 81 % 1006,9 hPa 0,0 l/m 0,0 km/h N 14,4 C 17,7 C 0,0 km/h
29.05.2016 05:00 17,2 C 81 % 1006,5 hPa 0,0 l/m 0,1 km/h N 13,9 C 17,2 C 2,8 km/h
29.05.2016 06:00 17,4 C 81 % 1006,5 hPa 0,0 l/m 0,1 km/h N 14,1 C 17,4 C 2,0 km/h
29.05.2016 07:00 18,2 C 81 % 1006,5 hPa 0,0 l/m 0,1 km/h N 14,8 C 18,2 C 2,8 km/h
29.05.2016 08:00 20,1 C 81 % 1006,2 hPa 0,0 l/m 0,1 km/h N 16,7 C 20,1 C 3,2 km/h
29.05.2016 09:00 22,8 C 76 % 1005,9 hPa 0,0 l/m 0,4 km/h N 18,2 C 22,8 C 4,8 km/h
29.05.2016 10:00 23,4 C 74 % 1005,7 hPa 0,0 l/m 0,6 km/h N 18,4 C 23,4 C 5,2 km/h
29.05.2016 11:00 25,1 C 69 % 1005,3 hPa 0,0 l/m 1,8 km/h N 18,9 C 25,1 C 9,2 km/h
29.05.2016 12:00 26,5 C 61 % 1004,9 hPa 0,0 l/m 2,0 km/h N 18,2 C 26,5 C 8,9 km/h
29.05.2016 13:00 27,6 C 55 % 1004,5 hPa 0,0 l/m 3,1 km/h N 17,7 C 27,6 C 12,5 km/h
29.05.2016 14:00 27,5 C 53 % 1004,1 hPa 0,0 l/m 2,6 km/h N 16,9 C 27,5 C 14,1 km/h
29.05.2016 15:00 27,5 C 54 % 1003,8 hPa 0,0 l/m 3,4 km/h N 17,3 C 27,5 C 16,9 km/h
29.05.2016 16:00 27,7 C 52 % 1003,1 hPa 0,0 l/m 4,2 km/h N 17,0 C 27,7 C 15,7 km/h
29.05.2016 17:00 28,3 C 49 % 1002,5 hPa 0,0 l/m 4,7 km/h N 16,6 C 28,3 C 18,9 km/h
29.05.2016 18:00 28,4 C 50 % 1002,2 hPa 0,0 l/m 4,8 km/h N 16,9 C 28,4 C 15,7 km/h
29.05.2016 19:00 27,5 C 52 % 1002,3 hPa 0,0 l/m 4,5 km/h N 16,8 C 27,5 C 15,7 km/h
29.05.2016 20:00 25,7 C 57 % 1002,3 hPa 0,0 l/m 2,0 km/h N 16,6 C 25,7 C 10,1 km/h
29.05.2016 21:00 24,3 C 63 % 1002,4 hPa 0,0 l/m 2,5 km/h N 16,7 C 24,3 C 9,3 km/h
29.05.2016 22:00 23,5 C 56 % 1002,6 hPa 0,0 l/m 3,2 km/h N 14,1 C 23,5 C 13,7 km/h
29.05.2016 23:00 22,2 C 54 % 1002,9 hPa 0,0 l/m 3,5 km/h N 12,3 C 22,2 C 13,7 km/h
Min-Datum _ 24.05.16 23.05.16 29.05.16 - 23.05.16 - 24.05.16 24.05.16 23.05.16
_ Min-Zeit 03:15 17:15 18:45 - 00:15 - 03:15 06:45 00:30
Minimum _ 9,4 C 43 % 1002,1 hPa - 0,0 km/h - 6,5 C 5,9 C 0,0 km/h
Max-Datum _ 29.05.16 23.05.16 26.05.16 24.05.16 24.05.16 - 28.05.16 29.05.16 25.05.16
_ Max-Zeit 18:45 06:15 08:15 02:45 14:30 - 12:00 18:30 01:45
Maximum _ 28,6 C 82 % 1015,7 hPa 5,7 l/m 20,2 km/h
N
- 19,7 C 28,5 C 45,1 km/h
N
Durchschnitt _ 18,8 C 70 % 1009,9 hPa #20,8 l/m 4,0 km/h N 13,0 C 18,2 C 13,3 km/h